Time;durP1;ratioP1;P1;durP2;ratioP2;P2;SDS_P1;SDS_P2;PMS_P1;PMS_P2;Temp;Humidity;BMP_temperature;BMP_pressure;BME280_temperature;BME280_humidity;BME280_pressure;Samples;Min_cycle;Max_cycle;Signal;HPM_P1;HPM_P2
2021/11/24 00:00:35;;;;;;;30.90;22.17;;;;;;;6.08;75.50;101246.62;2129611;82;29442;-66
2021/11/24 00:03:39;;;;;;;35.60;22.50;;;;;;;6.08;75.57;101251.47;2113172;82;27650;-65
2021/11/24 00:06:40;;;;;;;39.10;22.80;;;;;;;6.08;75.64;101250.61;2125353;82;29038;-66
2021/11/24 00:09:42;;;;;;;35.28;22.93;;;;;;;6.06;75.61;101242.63;2109834;84;32058;-65
2021/11/24 00:12:44;;;;;;;39.38;23.80;;;;;;;6.04;75.60;101244.90;2074767;84;33167;-65
2021/11/24 00:15:46;;;;;;;38.13;22.77;;;;;;;6.06;75.57;101255.93;2094993;84;29969;-65
2021/11/24 00:30:58;;;;;;;37.20;23.40;;;;;;;6.03;75.63;101245.80;2089782;84;27908;-65
2021/11/24 00:34:00;;;;;;;28.17;20.05;;;;;;;6.02;75.66;101238.72;2097767;82;27686;-64
2021/11/24 00:37:02;;;;;;;35.65;21.55;;;;;;;6.03;75.57;101236.49;2092076;83;29054;-62
2021/11/24 00:40:06;;;;;;;35.90;21.90;;;;;;;6.02;75.67;101242.28;2091779;82;32276;-63
2021/11/24 00:43:08;;;;;;;36.30;23.57;;;;;;;6.02;75.69;101234.73;2111662;82;33749;-65
2021/11/24 00:46:10;;;;;;;41.55;23.80;;;;;;;6.03;75.74;101243.14;2125201;82;29454;-63
2021/11/24 00:49:12;;;;;;;35.45;23.57;;;;;;;6.02;75.63;101238.72;2136591;82;27716;-64
2021/11/24 00:52:14;;;;;;;33.78;22.67;;;;;;;6.03;75.78;101228.52;2102683;82;29914;-64
2021/11/24 00:55:16;;;;;;;33.53;23.10;;;;;;;6.03;75.68;101232.06;2105142;84;32513;-65
2021/11/24 00:58:19;;;;;;;30.75;21.68;;;;;;;6.03;75.74;101236.05;2112329;84;33830;-65
2021/11/24 01:01:21;;;;;;;27.40;19.50;;;;;;;6.03;75.72;101232.50;2096535;82;29427;-65
2021/11/24 01:04:23;;;;;;;29.82;19.65;;;;;;;6.04;75.67;101232.93;2114990;83;27667;-65
2021/11/24 01:07:25;;;;;;;29.50;20.57;;;;;;;6.05;75.77;101221.39;2111746;82;29385;-66
2021/11/24 01:10:47;;;;;;;26.93;18.45;;;;;;;6.06;75.81;101225.81;2097020;83;27698;-62
2021/11/24 01:13:49;;;;;;;30.12;19.77;;;;;;;6.07;75.80;101226.23;2117766;83;34232;-66
2021/11/24 01:16:52;;;;;;;26.77;18.48;;;;;;;6.06;75.82;101220.02;2108351;83;29229;-64
2021/11/24 01:19:53;;;;;;;28.02;18.62;;;;;;;6.06;75.75;101217.36;2110366;81;27729;-61
2021/11/24 01:22:55;;;;;;;27.65;18.75;;;;;;;6.06;75.63;101219.16;2121436;83;29355;-64
2021/11/24 01:25:57;;;;;;;27.37;18.37;;;;;;;6.04;75.74;101220.49;2126959;81;31039;-64
2021/11/24 01:29:02;;;;;;;29.40;19.95;;;;;;;6.05;75.81;101217.40;2116609;81;33439;-64
2021/11/24 01:32:06;;;;;;;29.35;19.90;;;;;;;6.06;75.79;101220.02;2122976;81;29946;-60
2021/11/24 01:35:09;;;;;;;30.88;22.10;;;;;;;6.05;75.70;101213.41;2133084;81;27752;-61
2021/11/24 01:38:11;;;;;;;27.90;20.08;;;;;;;6.04;75.74;101207.66;2114260;83;28659;-60
2021/11/24 01:41:15;;;;;;;27.55;20.17;;;;;;;6.03;75.78;101207.23;2135553;83;31851;-62
2021/11/24 01:44:26;;;;;;;28.45;19.55;;;;;;;6.06;75.86;101211.17;2119689;81;33772;-64
2021/11/24 01:47:28;;;;;;;25.15;18.37;;;;;;;6.06;75.86;101210.71;2130089;81;29085;-63
2021/11/24 01:50:29;;;;;;;26.02;17.52;;;;;;;6.07;75.92;101207.15;2107555;81;27722;-63
2021/11/24 01:53:31;;;;;;;25.25;18.37;;;;;;;6.08;75.83;101204.92;2132406;81;29119;-61
2021/11/24 01:56:33;;;;;;;26.60;16.52;;;;;;;6.06;75.72;101200.07;2134328;83;31567;-62
2021/11/24 01:59:35;;;;;;;22.90;16.23;;;;;;;6.06;75.75;101199.20;2135995;83;33360;-62
2021/11/24 02:02:36;;;;;;;24.40;16.40;;;;;;;6.07;75.80;101202.30;2114720;81;29591;-63
2021/11/24 02:05:58;;;;;;;21.93;15.70;;;;;;;6.06;75.79;101199.20;2115106;83;27650;-62
2021/11/24 02:09:00;;;;;;;23.85;15.45;;;;;;;6.08;75.88;101202.73;2133257;82;28672;-62
2021/11/24 02:12:02;;;;;;;22.82;15.58;;;;;;;6.06;75.84;101193.42;2163248;81;31543;-63
2021/11/24 02:15:06;;;;;;;20.60;14.87;;;;;;;6.07;75.84;101193.84;2134547;81;34186;-63
2021/11/24 02:18:09;;;;;;;23.87;16.42;;;;;;;6.07;75.79;101188.53;2118484;81;29081;-63
2021/11/24 02:21:11;;;;;;;22.17;15.13;;;;;;;6.07;75.81;101190.33;2076810;84;27726;-64
2021/11/24 02:24:13;;;;;;;21.12;14.80;;;;;;;6.08;75.89;101188.09;2124370;83;29094;-64
2021/11/24 02:27:15;;;;;;;22.93;14.80;;;;;;;6.09;75.90;101187.19;2121758;81;31431;-64
2021/11/24 02:30:17;;;;;;;22.15;15.50;;;;;;;6.09;75.97;101185.86;2132355;81;33141;-63
2021/11/24 02:33:19;;;;;;;20.82;15.98;;;;;;;6.11;76.01;101184.49;2149332;81;30201;-64
2021/11/24 02:36:21;;;;;;;21.20;15.58;;;;;;;6.10;76.04;101182.30;2089852;84;27685;-64
2021/11/24 02:39:24;;;;;;;23.27;16.67;;;;;;;6.11;75.98;101174.75;2143483;83;29876;-64
2021/11/24 02:42:25;;;;;;;24.57;15.85;;;;;;;6.11;76.04;101179.17;2132055;82;31483;-62
2021/11/24 02:45:28;;;;;;;25.00;15.15;;;;;;;6.11;76.01;101179.17;2131616;83;33339;-57
2021/11/24 02:48:30;;;;;;;25.37;17.40;;;;;;;6.10;75.94;101170.33;2143565;82;29071;-51
2021/11/24 02:51:32;;;;;;;22.65;15.98;;;;;;;6.09;75.98;101177.88;2139065;82;27616;-55
2021/11/24 02:54:35;;;;;;;23.87;16.65;;;;;;;6.08;75.99;101169.01;2131549;82;29523;-54
2021/11/24 02:57:44;;;;;;;28.92;19.90;;;;;;;6.09;76.04;101163.25;2111676;83;31467;-51
2021/11/24 03:00:45;;;;;;;30.20;20.52;;;;;;;6.09;76.05;101159.27;2089220;84;33984;-56
2021/11/24 03:03:47;;;;;;;27.35;18.23;;;;;;;6.10;76.14;101160.13;2114286;82;29410;-57
2021/11/24 03:06:49;;;;;;;36.10;21.77;;;;;;;6.10;76.08;101157.47;2151290;81;27611;-52
2021/11/24 03:09:52;;;;;;;29.80;20.20;;;;;;;6.08;76.10;101155.70;2131720;81;29914;-56
2021/11/24 03:12:54;;;;;;;28.90;18.45;;;;;;;6.07;76.14;101150.42;2078953;83;31056;-57
2021/11/24 03:15:57;;;;;;;23.05;17.77;;;;;;;6.08;76.23;101150.85;2060181;85;33529;-62
2021/11/24 03:18:59;;;;;;;25.97;16.25;;;;;;;6.08;76.19;101156.17;2093328;83;29838;-59
2021/11/24 03:22:02;;;;;;;23.65;15.35;;;;;;;6.08;76.25;101155.70;2065090;83;27675;-63
2021/11/24 03:25:06;;;;;;;23.32;15.53;;;;;;;6.07;76.25;101151.76;2074943;83;29519;-63
2021/11/24 03:28:07;;;;;;;25.23;16.27;;;;;;;6.08;76.31;101153.05;2078323;84;31857;-64
2021/11/24 03:31:10;;;;;;;26.95;16.37;;;;;;;6.08;76.31;101157.50;2086496;84;33961;-65
2021/11/24 03:34:12;;;;;;;30.17;20.10;;;;;;;6.08;76.27;101153.05;2074990;84;30032;-64
2021/11/24 03:37:17;;;;;;;34.78;21.33;;;;;;;6.09;76.33;101148.63;2104153;82;27619;-65
2021/11/24 03:40:23;;;;;;;43.02;25.32;;;;;;;6.10;76.38;101140.17;2094772;82;30146;-67
2021/11/24 03:43:25;;;;;;;33.60;21.82;;;;;;;6.11;76.37;101143.26;2082744;82;32551;-64
2021/11/24 03:46:26;;;;;;;29.72;19.67;;;;;;;6.11;76.36;101139.27;2070719;84;34092;-62
2021/11/24 03:49:29;;;;;;;29.65;17.82;;;;;;;6.12;76.27;101144.59;2083241;84;29440;-63
2021/11/24 03:52:31;;;;;;;24.07;16.50;;;;;;;6.12;76.22;101144.59;2096636;82;27656;-64
2021/11/24 03:55:33;;;;;;;21.62;14.60;;;;;;;6.11;76.15;101148.14;2079849;84;29932;-64
2021/11/24 03:58:35;;;;;;;19.80;13.70;;;;;;;6.12;76.11;101142.36;2081714;84;31073;-65
2021/11/24 04:01:37;;;;;;;19.55;13.65;;;;;;;6.11;76.07;101137.94;2096776;82;34283;-65
2021/11/24 04:04:39;;;;;;;22.52;15.10;;;;;;;6.12;76.22;101127.29;2102604;84;30435;-65
2021/11/24 04:07:41;;;;;;;22.07;14.70;;;;;;;6.14;76.21;101128.11;2098454;84;27672;-65
2021/11/24 04:10:45;;;;;;;22.48;15.08;;;;;;;6.14;76.19;101128.58;2113999;82;30762;-65
2021/11/24 04:13:47;;;;;;;19.80;13.43;;;;;;;6.17;76.17;101129.39;2085146;84;31089;-61
2021/11/24 04:16:49;;;;;;;20.50;13.55;;;;;;;6.18;76.19;101132.95;2107201;84;33412;-65
2021/11/24 04:19:50;;;;;;;23.02;13.80;;;;;;;6.19;76.10;101134.70;2083755;83;29385;-64
2021/11/24 04:22:52;;;;;;;19.07;13.85;;;;;;;6.19;76.19;101133.38;2092204;83;27658;-62
2021/11/24 04:25:54;;;;;;;24.55;13.78;;;;;;;6.21;76.14;101137.75;2109487;84;29906;-64
2021/11/24 04:28:56;;;;;;;19.37;13.35;;;;;;;6.22;76.10;101137.28;2105002;82;31073;-57
2021/11/24 04:31:57;;;;;;;23.18;14.03;;;;;;;6.23;76.12;101136.38;2108712;83;32842;-64
2021/11/24 04:35:00;;;;;;;18.80;13.28;;;;;;;6.24;76.11;101135.48;2084244;83;29074;-63
2021/11/24 04:38:02;;;;;;;22.85;13.98;;;;;;;6.24;76.01;101126.16;2103415;83;27691;-64
2021/11/24 04:41:04;;;;;;;21.07;14.53;;;;;;;6.26;76.02;101126.16;2111007;84;28493;-64
2021/11/24 04:44:06;;;;;;;24.50;16.37;;;;;;;6.26;75.92;101124.83;2092094;84;31043;-64
2021/11/24 04:47:08;;;;;;;21.68;14.10;;;;;;;6.27;75.92;101115.94;2077133;84;33714;-61
2021/11/24 04:50:12;;;;;;;22.75;13.98;;;;;;;6.25;75.85;101115.95;2093660;82;30372;-65
2021/11/24 04:53:14;;;;;;;20.82;13.90;;;;;;;6.26;75.81;101120.84;2097922;82;27713;-64
2021/11/24 04:56:16;;;;;;;22.07;14.60;;;;;;;6.23;75.83;101117.33;2097625;84;29928;-64
2021/11/24 04:59:18;;;;;;;22.00;14.03;;;;;;;6.22;75.75;101114.67;2109371;84;31894;-64
2021/11/24 05:02:20;;;;;;;19.75;14.18;;;;;;;6.20;75.71;101117.38;2099768;82;34340;-64
2021/11/24 05:05:28;;;;;;;28.00;15.38;;;;;;;6.21;75.86;101113.81;2104270;84;29441;-65
2021/11/24 05:08:27;;;;;;;;;;;;;;;6.20;75.81;101105.40;2115199;84;27637;-63
2021/11/24 05:11:29;;;;;;;24.65;15.25;;;;;;;6.19;75.92;101106.30;2140827;81;28498;-65
2021/11/24 05:14:36;;;;;;;23.67;15.20;;;;;;;6.17;75.82;101104.59;2124247;81;31534;-65
2021/11/24 05:17:35;;;;;;;23.60;16.55;;;;;;;6.16;75.90;101101.50;2122924;81;33381;-60
2021/11/24 05:20:38;;;;;;;23.98;15.70;;;;;;;6.15;75.90;101102.41;2135340;82;29375;-63
2021/11/24 05:23:42;;;;;;;26.60;15.38;;;;;;;6.16;75.95;101102.83;2079300;84;27690;-65
2021/11/24 05:26:43;;;;;;;31.95;16.05;;;;;;;6.15;75.90;101101.94;2110707;81;29081;-63
2021/11/24 05:29:45;;;;;;;23.75;15.90;;;;;;;6.16;75.89;101099.70;2101386;84;31451;-65
2021/11/24 05:32:48;;;;;;;27.48;16.62;;;;;;;6.17;75.79;101105.92;2133226;81;33752;-65
2021/11/24 05:35:50;;;;;;;27.15;16.80;;;;;;;6.17;75.75;101104.59;2140645;82;29056;-66
2021/11/24 05:38:52;;;;;;;24.98;15.93;;;;;;;6.18;75.71;101103.22;2121423;82;27643;-66
2021/11/24 05:41:54;;;;;;;25.10;14.87;;;;;;;6.18;75.51;101104.55;2112624;82;29924;-66
2021/11/24 05:45:13;;;;;;;23.85;16.37;;;;;;;6.19;75.56;101104.11;2145497;81;31443;-61
2021/11/24 05:48:15;;;;;;;22.52;14.65;;;;;;;6.19;75.58;101104.97;2142085;81;33350;-66
2021/11/24 05:51:17;;;;;;;24.67;14.50;;;;;;;6.19;75.36;101112.09;2087027;83;29630;-64
2021/11/24 05:54:19;;;;;;;19.82;13.22;;;;;;;6.17;75.34;101104.13;2105326;83;27735;-59
2021/11/24 05:57:20;;;;;;;20.48;13.48;;;;;;;6.17;75.36;101104.59;2109523;84;29058;-50
2021/11/24 06:00:22;;;;;;;22.65;13.75;;;;;;;6.16;75.27;101098.84;2111488;82;32267;-55
2021/11/24 06:03:24;;;;;;;21.05;13.38;;;;;;;6.15;75.23;101097.08;2118917;83;34207;-52
2021/11/24 06:06:26;;;;;;;19.67;13.20;;;;;;;6.12;75.14;101108.67;2099188;84;29202;-55
2021/11/24 06:09:28;;;;;;;24.30;12.68;;;;;;;6.11;74.90;101117.55;2121425;81;28465;-53
2021/11/24 06:12:30;;;;;;;20.32;12.80;;;;;;;6.11;75.03;101113.56;2101972;83;30113;-51
2021/11/24 06:15:34;;;;;;;19.95;13.93;;;;;;;6.11;75.10;101114.89;2042746;85;32266;-52
2021/11/24 06:18:36;;;;;;;18.02;12.35;;;;;;;6.12;74.99;101119.75;2088228;84;37243;-55
2021/11/24 06:21:38;;;;;;;22.62;12.30;;;;;;;6.13;75.11;101118.84;2081444;84;28811;-52
2021/11/24 06:24:40;;;;;;;22.65;13.08;;;;;;;6.13;75.11;101121.03;2071698;84;27662;-53
2021/11/24 06:27:42;;;;;;;19.85;12.53;;;;;;;6.14;75.23;101113.95;2096119;84;29107;-55
2021/11/24 06:30:43;;;;;;;20.90;13.70;;;;;;;6.15;75.14;101117.03;2077640;84;31042;-64
2021/11/24 06:33:45;;;;;;;21.60;12.80;;;;;;;6.16;75.31;101106.35;2070542;84;33574;-58
2021/11/24 06:36:47;;;;;;;23.75;13.32;;;;;;;6.16;75.17;101110.81;2101007;84;29397;-57
2021/11/24 06:39:49;;;;;;;24.00;14.68;;;;;;;6.15;75.16;101110.38;2099013;82;27702;-53
2021/11/24 06:42:55;;;;;;;20.82;12.65;;;;;;;6.16;75.37;101109.48;2086544;84;28732;-53
2021/11/24 06:45:57;;;;;;;22.50;12.07;;;;;;;6.16;75.34;101118.33;2068330;84;32415;-52
2021/11/24 06:48:59;;;;;;;19.87;11.85;;;;;;;6.18;75.36;101119.64;2066065;84;33143;-50
2021/11/24 06:52:01;;;;;;;17.50;11.43;;;;;;;6.20;75.40;101122.69;2067271;84;29046;-59
2021/11/24 06:55:04;;;;;;;22.48;12.33;;;;;;;6.22;75.49;101121.32;2100410;84;27948;-68
2021/11/24 06:58:06;;;;;;;24.70;11.95;;;;;;;6.21;75.44;101119.13;2100512;84;29541;-57
2021/11/24 07:01:08;;;;;;;18.80;11.73;;;;;;;6.21;75.38;101125.78;2098999;84;31447;-53
2021/11/24 07:04:10;;;;;;;16.27;10.30;;;;;;;6.22;75.37;101130.20;2085413;84;34158;-52
2021/11/24 07:07:19;;;;;;;17.57;9.75;;;;;;;6.23;75.34;101127.97;2100307;84;30246;-58
2021/11/24 07:10:23;;;;;;;17.80;9.90;;;;;;;6.22;75.37;101122.22;2094793;82;28005;-49
2021/11/24 07:13:25;;;;;;;16.65;10.72;;;;;;;6.20;75.34;101125.82;2099445;82;29548;-59
2021/11/24 07:16:28;;;;;;;14.85;9.98;;;;;;;6.19;75.22;101133.38;2066137;84;31457;-49
2021/11/24 07:19:30;;;;;;;20.65;11.08;;;;;;;6.18;75.37;101135.61;2065432;84;32991;-49
2021/11/24 07:22:32;;;;;;;18.37;10.72;;;;;;;6.22;75.54;101136.85;2098707;84;30239;-53
2021/11/24 07:25:34;;;;;;;17.52;10.78;;;;;;;6.27;75.50;101137.23;2100904;84;27733;-56
2021/11/24 07:28:36;;;;;;;19.15;11.70;;;;;;;6.29;75.52;101138.95;2101226;84;28639;-53
2021/11/24 07:31:38;;;;;;;14.70;9.80;;;;;;;6.37;75.57;101130.81;2080092;84;32284;-56
2021/11/24 07:34:40;;;;;;;16.73;10.53;;;;;;;6.44;75.58;101130.24;2065790;86;34210;-51
2021/11/24 07:37:42;;;;;;;17.62;10.30;;;;;;;6.51;75.59;101130.56;2066056;86;29188;-52
2021/11/24 07:40:44;;;;;;;19.32;11.28;;;;;;;6.56;75.45;101125.14;2066822;84;28007;-52
2021/11/24 07:43:46;;;;;;;17.25;10.05;;;;;;;6.62;75.32;101125.90;2065719;84;29934;-55
2021/11/24 07:46:48;;;;;;;18.82;10.45;;;;;;;6.70;75.32;101125.74;2054682;86;30953;-58
2021/11/24 07:49:53;;;;;;;15.72;10.40;;;;;;;6.79;75.26;101117.55;2055754;86;33643;-50
2021/11/24 07:52:55;;;;;;;15.48;9.88;;;;;;;6.89;75.00;101117.38;2125802;83;30436;-52
2021/11/24 07:55:57;;;;;;;18.42;11.95;;;;;;;6.97;74.98;101120.73;2126736;83;27613;-51
2021/11/24 07:59:03;;;;;;;20.55;12.93;;;;;;;7.04;74.80;101122.38;2126247;83;29499;-62
2021/11/24 08:02:05;;;;;;;21.77;12.78;;;;;;;7.13;74.74;101119.50;2093650;83;32256;-53
2021/11/24 08:05:08;;;;;;;20.75;11.85;;;;;;;7.21;74.64;101115.80;2056652;85;33313;-52
2021/11/24 08:08:12;;;;;;;20.57;11.43;;;;;;;7.30;74.63;101117.80;2079689;83;29050;-63
2021/11/24 08:11:14;;;;;;;21.05;10.68;;;;;;;7.38;74.39;101111.40;2099816;84;27986;-52
2021/11/24 08:14:16;;;;;;;18.95;11.03;;;;;;;7.43;74.16;101115.73;2112581;84;29190;-65
2021/11/24 08:17:18;;;;;;;22.82;12.45;;;;;;;7.53;74.27;101116.37;2120485;82;31933;-65
2021/11/24 08:20:20;;;;;;;22.82;11.15;;;;;;;7.56;73.51;101103.44;2148470;82;32976;-58
2021/11/24 08:23:22;;;;;;;18.75;10.20;;;;;;;7.60;73.75;101105.98;2144079;82;30225;-65
2021/11/24 08:26:26;;;;;;;13.70;9.08;;;;;;;7.66;73.57;101117.43;2148757;82;27599;-65
2021/11/24 08:29:27;;;;;;;16.45;9.73;;;;;;;7.73;73.72;101119.02;2149000;82;28809;-61
2021/11/24 08:32:30;;;;;;;16.52;10.13;;;;;;;7.82;73.72;101125.48;2148745;82;32240;-58
2021/11/24 08:35:32;;;;;;;17.37;11.08;;;;;;;7.90;73.65;101118.61;2096822;82;33371;-55
2021/11/24 08:38:34;;;;;;;18.10;10.58;;;;;;;7.98;73.46;101123.75;2102931;82;29087;-63
2021/11/24 08:41:37;;;;;;;15.72;11.38;;;;;;;8.05;73.41;101115.55;2081110;82;28074;-57
2021/11/24 08:44:41;;;;;;;17.77;12.60;;;;;;;8.12;73.28;101119.38;2077013;84;28773;-63
2021/11/24 08:47:43;;;;;;;17.02;13.48;;;;;;;8.18;72.89;101112.55;2077138;85;32027;-58
2021/11/24 08:50:45;;;;;;;16.90;11.73;;;;;;;8.20;72.89;101114.25;2086951;84;33341;-52
2021/11/24 08:53:47;;;;;;;15.45;11.12;;;;;;;8.27;72.90;101115.43;2133479;82;29463;-61
2021/11/24 08:56:49;;;;;;;16.20;10.72;;;;;;;8.33;72.98;101109.94;2148732;82;27891;-52
2021/11/24 08:59:51;;;;;;;18.65;10.80;;;;;;;8.39;72.44;101115.56;2149126;82;30138;-54
2021/11/24 09:02:52;;;;;;;14.03;9.55;;;;;;;8.40;72.40;101111.50;2113247;82;32050;-57
2021/11/24 09:05:54;;;;;;;20.12;10.13;;;;;;;8.46;72.54;101113.12;2112199;84;34340;-52
2021/11/24 09:08:56;;;;;;;16.57;9.58;;;;;;;8.55;72.57;101110.25;2112126;84;30464;-58
2021/11/24 09:11:58;;;;;;;14.20;10.03;;;;;;;8.63;72.51;101107.36;2104146;82;27939;-56
2021/11/24 09:15:00;;;;;;;14.07;9.68;;;;;;;8.71;72.22;101107.14;2122433;83;28537;-52
2021/11/24 09:18:03;;;;;;;13.72;9.80;;;;;;;8.74;72.05;101099.90;2076198;83;31817;-60
2021/11/24 09:21:05;;;;;;;26.23;15.63;;;;;;;8.81;71.93;101109.95;2053793;84;32983;-56
2021/11/24 09:24:13;;;;;;;17.90;12.53;;;;;;;8.83;71.60;101101.91;2095189;84;29499;-59
2021/11/24 09:27:18;;;;;;;17.33;11.87;;;;;;;8.86;71.62;101109.80;2094335;83;27704;-57
2021/11/24 09:30:20;;;;;;;19.65;11.03;;;;;;;8.86;71.28;101100.45;2106092;84;29581;-63
2021/11/24 09:33:22;;;;;;;16.55;10.40;;;;;;;8.85;71.07;101102.73;2105879;84;32425;-56
2021/11/24 09:36:26;;;;;;;18.60;11.75;;;;;;;8.85;71.37;101099.59;2106152;84;33422;-64
2021/11/24 09:39:28;;;;;;;21.12;12.35;;;;;;;8.90;71.43;101103.02;2073077;83;29842;-57
2021/11/24 09:42:32;;;;;;;17.87;12.60;;;;;;;8.94;71.47;101102.45;2089719;83;27747;-59
2021/11/24 09:45:35;;;;;;;17.98;12.53;;;;;;;8.96;71.14;101100.14;2084783;83;28650;-55
2021/11/24 09:48:38;;;;;;;22.30;11.73;;;;;;;9.02;71.30;101094.20;2071579;85;31186;-53
2021/11/24 09:51:42;;;;;;;17.42;11.75;;;;;;;9.07;71.08;101088.27;2071167;86;34218;-63
2021/11/24 09:54:49;;;;;;;16.10;11.13;;;;;;;9.11;71.03;101089.90;2107949;83;29855;-58
2021/11/24 09:57:53;;;;;;;15.70;11.30;;;;;;;9.14;71.00;101092.48;2141232;83;27727;-53
2021/11/24 10:00:57;;;;;;;15.23;10.38;;;;;;;9.18;70.81;101080.78;2110130;83;29314;-54
2021/11/24 10:04:01;;;;;;;16.20;10.00;;;;;;;9.23;70.84;101080.63;2071784;85;31920;-55
2021/11/24 10:07:03;;;;;;;13.65;10.20;;;;;;;9.31;70.68;101079.94;2071545;85;33012;-55
2021/11/24 10:10:07;;;;;;;15.05;9.65;;;;;;;9.37;70.57;101073.52;2078557;83;29409;-59
2021/11/24 10:13:10;;;;;;;15.13;9.93;;;;;;;9.40;70.57;101073.42;2128994;83;28416;-55
2021/11/24 10:16:25;;;;;;;14.98;10.65;;;;;;;9.41;70.40;101066.67;2126140;82;29923;-53
2021/11/24 10:19:27;;;;;;;9.47;6.87;;;;;;;9.44;70.47;101067.02;2072717;85;31076;-62
2021/11/24 10:22:33;;;;;;;17.10;10.65;;;;;;;9.48;70.27;101065.15;2037073;85;34248;-51
2021/11/24 10:25:35;;;;;;;19.62;12.43;;;;;;;9.50;70.17;101065.50;2054900;86;29031;-53
2021/11/24 10:28:37;;;;;;;24.50;13.72;;;;;;;9.50;69.89;101056.14;2054787;86;27744;-54
2021/11/24 10:32:02;;;;;;;18.37;11.53;;;;;;;9.50;69.75;101058.81;2056279;85;29918;-56
2021/11/24 10:35:05;;;;;;;18.70;10.50;;;;;;;9.50;69.74;101058.81;2076292;83;32283;-56
2021/11/24 10:38:17;;;;;;;17.82;10.72;;;;;;;9.58;69.91;101052.77;2123634;83;33005;-55
2021/11/24 10:41:36;;;;;;;21.93;13.72;;;;;;;9.67;69.86;101055.59;2125369;83;30281;-53
2021/11/24 10:44:37;;;;;;;34.43;18.75;;;;;;;9.71;69.87;101043.83;2126294;83;27731;-53
2021/11/24 10:47:58;;;;;;;18.25;11.18;;;;;;;9.81;69.93;101040.86;2113554;83;29561;-54
2021/11/24 10:51:02;;;;;;;14.20;9.08;;;;;;;9.80;69.39;101033.76;2091012;85;31880;-49
2021/11/24 10:54:08;;;;;;;15.13;10.15;;;;;;;9.70;69.16;101035.88;2109596;84;33166;-54
2021/11/24 10:57:13;;;;;;;22.25;10.50;;;;;;;9.61;69.21;101031.71;2102818;83;29036;-56
2021/11/24 11:00:20;;;;;;;14.58;9.95;;;;;;;9.57;69.30;101028.27;2132765;83;27725;-55
2021/11/24 11:03:35;;;;;;;18.35;11.28;;;;;;;9.51;69.14;101017.77;2103276;83;28705;-53
2021/11/24 11:06:38;;;;;;;15.18;10.32;;;;;;;9.46;69.27;101029.08;2096335;84;31110;-57
2021/11/24 11:09:40;;;;;;;15.50;10.32;;;;;;;9.41;69.00;101025.70;2091306;83;33710;-54
2021/11/24 11:12:50;;;;;;;13.78;10.15;;;;;;;9.34;68.91;101020.13;2095385;83;29826;-54
2021/11/24 11:15:56;;;;;;;19.73;12.43;;;;;;;9.26;68.94;101013.25;2076531;83;28036;-50
2021/11/24 11:18:58;;;;;;;16.65;12.60;;;;;;;9.25;69.19;101015.95;2062163;84;28836;-59
2021/11/24 11:22:04;;;;;;;16.97;11.45;;;;;;;9.24;69.23;101005.73;2060771;86;31817;-53
2021/11/24 11:25:07;;;;;;;19.07;13.55;;;;;;;9.27;69.19;100999.41;2078489;83;33175;-51
2021/11/24 11:28:10;;;;;;;25.35;14.90;;;;;;;9.28;69.19;101001.16;2093167;83;29004;-54
2021/11/24 11:31:15;;;;;;;16.70;11.68;;;;;;;9.26;69.09;101003.00;2115868;83;27781;-61
2021/11/24 11:34:17;;;;;;;;;;;;;;;9.27;69.28;100996.25;2123361;83;29532;-63
2021/11/24 11:37:20;;;;;;;20.02;13.03;;;;;;;9.32;69.31;101000.58;2097093;84;32369;-53
2021/11/24 11:40:21;;;;;;;15.88;11.48;;;;;;;9.28;69.11;100995.80;2095491;83;33790;-61
2021/11/24 11:43:24;;;;;;;16.97;11.38;;;;;;;9.24;69.07;100991.03;2112570;83;30374;-61
2021/11/24 11:46:33;;;;;;;15.23;10.75;;;;;;;9.18;68.91;100991.70;2113300;83;28256;-59
2021/11/24 11:49:38;;;;;;;16.40;10.75;;;;;;;9.15;68.91;100988.64;2086511;83;28682;-59
2021/11/24 11:52:40;;;;;;;12.88;9.48;;;;;;;9.11;68.87;100982.98;2086009;85;31866;-54
2021/11/24 11:55:43;;;;;;;16.23;11.33;;;;;;;9.07;68.69;100981.35;2086021;85;33851;-55
2021/11/24 11:59:04;;;;;;;23.90;13.78;;;;;;;9.03;68.62;100977.02;2117722;83;30236;-61
2021/11/24 12:02:10;;;;;;;24.50;13.75;;;;;;;8.99;68.82;100972.69;2132326;83;27727;-59
2021/11/24 12:05:11;;;;;;;35.05;18.27;;;;;;;8.97;69.01;100973.61;2132731;83;28751;-49
2021/11/24 12:08:13;;;;;;;34.33;18.60;;;;;;;8.96;68.99;100977.20;2113942;83;32324;-51
2021/11/24 12:11:15;;;;;;;53.80;25.48;;;;;;;8.97;69.15;100969.61;2096765;84;32841;-51
2021/11/24 12:14:46;;;;;;;17.20;11.43;;;;;;;8.97;69.01;100962.92;2112018;84;54054;-52
2021/11/24 12:17:56;;;;;;;14.15;10.43;;;;;;;8.98;69.06;100958.47;2100208;84;28088;-54
2021/11/24 12:20:57;;;;;;;15.98;10.50;;;;;;;8.99;68.84;100960.66;2079739;82;29884;-51
2021/11/24 12:24:08;;;;;;;16.52;10.85;;;;;;;9.02;68.96;100960.09;2144500;82;31882;-51
2021/11/24 12:27:10;;;;;;;17.32;11.25;;;;;;;9.05;68.85;100962.67;2149189;82;33758;-64
2021/11/24 12:30:12;;;;;;;30.10;21.33;;;;;;;9.07;69.00;100958.16;2149039;82;29557;-63
2021/11/24 12:33:34;;;;;;;22.65;17.42;;;;;;;9.10;69.00;100958.54;2145322;82;27980;-63
2021/11/24 12:36:36;;;;;;;15.50;10.95;;;;;;;9.11;69.02;100958.47;2095894;82;29616;-64
2021/11/24 12:39:39;;;;;;;12.80;8.68;;;;;;;9.09;68.86;100948.29;2078341;84;31433;-64
2021/11/24 12:42:41;;;;;;;11.95;9.30;;;;;;;9.10;68.86;100956.72;2098336;84;32977;-64
2021/11/24 12:46:12;;;;;;;15.58;9.10;;;;;;;9.11;68.71;100954.91;2055554;84;30026;-62
2021/11/24 12:49:17;;;;;;;16.55;9.90;;;;;;;9.08;68.60;100956.38;2080981;84;28044;-52
2021/11/24 12:52:22;;;;;;;12.25;9.13;;;;;;;9.07;68.75;100952.81;2107955;84;28673;-50
2021/11/24 12:55:23;;;;;;;13.70;9.65;;;;;;;9.08;68.74;100949.69;2098326;82;30820;-56
2021/11/24 12:58:26;;;;;;;19.45;9.88;;;;;;;9.07;68.64;100946.13;2078011;85;33150;-58
2021/11/24 13:01:33;;;;;;;14.68;9.20;;;;;;;9.06;68.74;100945.72;2077614;85;29413;-54
2021/11/24 13:04:46;;;;;;;15.78;9.55;;;;;;;9.05;68.58;100943.97;2104452;82;27547;-55
2021/11/24 13:07:54;;;;;;;19.45;10.48;;;;;;;9.05;68.71;100941.29;2114594;82;29862;-52
2021/11/24 13:11:07;;;;;;;16.60;10.93;;;;;;;9.06;68.69;100937.70;2111761;84;30843;-52
2021/11/24 13:14:09;;;;;;;26.23;16.60;;;;;;;9.08;68.80;100941.67;2090941;84;33095;-50
2021/11/24 13:17:25;;;;;;;23.42;13.88;;;;;;;9.08;68.83;100934.98;2073491;83;30284;-59
2021/11/24 13:20:31;;;;;;;39.67;24.67;;;;;;;9.07;68.74;100931.42;2128505;83;27662;-49
2021/11/24 13:24:01;;;;;;;31.02;18.70;;;;;;;9.07;68.77;100930.56;2101165;83;29808;-54
2021/11/24 13:27:04;;;;;;;17.40;12.37;;;;;;;9.03;68.68;100926.24;2084610;83;32287;-53
2021/11/24 13:30:08;;;;;;;19.75;12.82;;;;;;;9.00;68.65;100929.91;2076264;84;34169;-54
2021/11/24 13:33:24;;;;;;;25.92;16.50;;;;;;;8.97;68.74;100921.50;2062075;84;29017;-48
2021/11/24 13:36:26;;;;;;;29.40;19.15;;;;;;;8.97;68.77;100918.83;2091828;83;27682;-65
2021/11/24 13:39:33;;;;;;;27.27;17.95;;;;;;;8.95;68.87;100913.13;2108227;83;29891;-65
2021/11/24 13:42:39;;;;;;;44.45;25.92;;;;;;;8.93;68.73;100909.64;2129157;83;31044;-65
2021/11/24 13:45:45;;;;;;;30.65;19.02;;;;;;;8.90;68.78;100909.73;2132589;83;32964;-64
2021/11/24 13:48:49;;;;;;;20.40;13.22;;;;;;;8.88;68.87;100912.47;2132701;83;29020;-63
2021/11/24 13:52:04;;;;;;;20.77;14.25;;;;;;;8.84;68.61;100916.15;2116814;83;28146;-64
2021/11/24 13:55:08;;;;;;;18.42;10.70;;;;;;;8.81;68.70;100913.12;2085896;85;29602;-51
2021/11/24 13:58:10;;;;;;;19.35;12.13;;;;;;;8.75;68.54;100909.31;2063918;85;31051;-58
2021/11/24 14:01:19;;;;;;;16.45;11.18;;;;;;;8.72;68.56;100912.55;2087473;83;33851;-59
2021/11/24 14:04:44;;;;;;;23.22;15.88;;;;;;;8.66;68.53;100909.62;2062378;84;29127;-52
2021/11/24 14:07:49;;;;;;;35.17;23.02;;;;;;;8.64;68.65;100903.45;1943000;89;27754;-53
2021/11/24 14:10:51;;;;;;;42.33;27.80;;;;;;;8.61;68.79;100908.41;1957396;88;28656;-52
2021/11/24 14:14:11;;;;;;;26.80;19.15;;;;;;;8.60;68.89;100904.45;1992006;88;31415;-50
2021/11/24 14:17:30;;;;;;;16.25;12.25;;;;;;;8.58;68.97;100901.85;1992020;89;33594;-50
2021/11/24 14:20:39;;;;;;;16.07;10.82;;;;;;;8.56;69.00;100895.68;1970909;87;30210;-50